Decoded Metar for KUTS (HUNTSVILLE in TX, USA) (IATA:UTS) | Meteo·Mobile Aviation Weather
aviador You're here:

KUTS Decoded Metar

HUNTSVILLE in TX, USA
Report Time2018-12-15 14:53:00
UTC Time2018-12-15 15:03:35
Flight Rules vfr VFR
Wind300° at 08 kt
W.Decomp.*RWY 36: 3.3 kt HW 7.3 kt LCW
W.Rank300° ranks 27
Current wind is above 300° avg. (6.6)
Visibility9999 m
Phenomena:N/A
Clouds:N/A
Expected CloudBase > 2,400 ft AGL from Temp-Dew spread
CeilingNone
Temp07°C (ISA -7)
Dew Point01°C (66% RH)
AAT2.3°C
QNH1021 hPa
Density Alt-719 ft
Elevation341 ft
Report Wrong Elevation
Raw Report
KUTS 151453Z AUTO 30008KT 10SM CLR 07/01 A3016 RMK AO2 SLP213
T00720006 51025=

Extra information for KUTS:More info

Metar Taf Metar & Taf Last 4 Metars F.Rules Stats Wind Profile Meteogram Temp Stats Airport Information Weather charts Add Link Nearby VenuesMetar ALERT Operation Metar Decoded Social comments

AIRNAV info for KUTS